Time;durP1;ratioP1;P1;durP2;ratioP2;P2;SDS_P1;SDS_P2;PMS_P1;PMS_P2;Temp;Humidity;BMP_temperature;BMP_pressure;BME280_temperature;BME280_humidity;BME280_pressure;Samples;Min_cycle;Max_cycle;Signal;HPM_P1;HPM_P2
2023/10/15 00:00:55;;;;;;;3.92;0.60;;;7.60;99.90;;;;;;4983982;28;20048;-73
2023/10/15 00:03:21;;;;;;;3.15;0.40;;;7.60;99.90;;;;;;5017674;28;20025;-72
2023/10/15 00:05:48;;;;;;;2.08;0.75;;;7.60;99.90;;;;;;4999637;28;20037;-73
2023/10/15 00:08:14;;;;;;;3.17;0.50;;;7.60;99.90;;;;;;5016311;28;20022;-73
2023/10/15 00:10:41;;;;;;;4.15;0.40;;;7.70;99.90;;;;;;5030923;28;20385;-73
2023/10/15 00:13:07;;;;;;;3.42;0.50;;;7.70;99.90;;;;;;5017973;28;20037;-73
2023/10/15 00:15:34;;;;;;;1.08;0.50;;;7.70;99.90;;;;;;5018234;28;20041;-73
2023/10/15 00:18:06;;;;;;;2.60;0.73;;;7.70;99.90;;;;;;5001092;28;20417;-73
2023/10/15 00:20:35;;;;;;;3.95;0.80;;;7.70;99.90;;;;;;5019820;28;20044;-73
2023/10/15 00:23:05;;;;;;;2.83;0.50;;;7.70;99.90;;;;;;4994947;28;1101104;-73
2023/10/15 00:25:37;;;;;;;1.75;0.38;;;7.70;99.90;;;;;;5019211;28;20642;-73
2023/10/15 00:28:11;;;;;;;2.50;0.50;;;7.60;99.90;;;;;;5017911;28;20505;-74
2023/10/15 00:30:39;;;;;;;1.70;0.40;;;7.60;99.90;;;;;;5017951;28;20676;-73
2023/10/15 00:33:06;;;;;;;3.75;0.45;;;7.60;99.90;;;;;;4981391;28;20234;-74
2023/10/15 00:35:33;;;;;;;3.13;0.40;;;7.60;99.90;;;;;;5000567;28;20034;-73
2023/10/15 00:38:07;;;;;;;1.83;0.40;;;7.60;99.90;;;;;;4983978;28;20045;-73
2023/10/15 00:40:41;;;;;;;2.08;0.43;;;7.60;99.90;;;;;;5035976;28;20042;-73
2023/10/15 00:43:08;;;;;;;2.53;0.50;;;7.60;99.90;;;;;;5002942;28;20437;-73
2023/10/15 00:45:39;;;;;;;2.63;0.50;;;7.60;99.90;;;;;;5000774;28;20032;-73
2023/10/15 00:50:38;;;;;;;5.78;0.50;;;7.60;99.90;;;;;;5020759;28;20021;-73
2023/10/15 00:53:24;;;;;;;3.97;0.80;;;7.60;99.90;;;;;;5000639;28;20040;-73
2023/10/15 00:55:51;;;;;;;2.72;0.32;;;7.60;99.90;;;;;;5016483;28;20037;-73
2023/10/15 01:03:49;;;;;;;1.20;0.40;;;7.70;99.90;;;;;;5001066;28;20041;-73
2023/10/15 01:06:19;;;;;;;0.82;0.30;;;7.70;99.90;;;;;;4994149;28;20041;-73
2023/10/15 01:08:47;;;;;;;2.00;0.73;;;7.70;99.90;;;;;;5017443;28;20895;-73
2023/10/15 01:11:15;;;;;;;4.22;0.50;;;7.70;99.90;;;;;;4996355;28;20034;-73
2023/10/15 01:13:41;;;;;;;3.08;0.70;;;7.70;99.90;;;;;;5017042;28;20033;-73
2023/10/15 01:16:13;;;;;;;1.23;0.40;;;7.70;99.90;;;;;;4984825;28;20404;-73
2023/10/15 01:18:39;;;;;;;2.85;0.40;;;7.70;99.90;;;;;;4979892;28;20052;-73
2023/10/15 01:21:09;;;;;;;1.63;0.50;;;7.70;99.90;;;;;;5034524;28;20038;-73
2023/10/15 01:26:09;;;;;;;1.85;0.30;;;7.70;99.90;;;;;;5014237;28;20041;-73
2023/10/15 01:28:36;;;;;;;0.98;0.40;;;7.70;99.90;;;;;;4996954;28;20033;-73
2023/10/15 01:31:06;;;;;;;2.42;0.70;;;7.60;99.90;;;;;;5017290;28;20408;-73
2023/10/15 01:33:46;;;;;;;3.42;0.40;;;7.50;99.90;;;;;;5000212;28;20480;-73
2023/10/15 01:36:19;;;;;;;1.88;0.40;;;7.50;99.90;;;;;;5015127;28;20076;-73
2023/10/15 01:38:46;;;;;;;1.15;0.40;;;7.50;99.90;;;;;;4997993;28;20042;-73
2023/10/15 01:41:13;;;;;;;2.17;0.43;;;7.50;99.90;;;;;;4998222;28;20033;-73
2023/10/15 01:43:41;;;;;;;1.92;0.57;;;7.50;99.90;;;;;;4994436;28;20041;-73
2023/10/15 01:46:10;;;;;;;1.83;0.40;;;7.50;99.90;;;;;;5034128;28;20029;-73
2023/10/15 01:48:41;;;;;;;2.92;0.43;;;7.50;99.90;;;;;;5001191;28;20034;-73
2023/10/15 01:51:07;;;;;;;1.15;0.38;;;7.50;99.90;;;;;;5010502;28;20026;-73
2023/10/15 01:53:39;;;;;;;3.67;0.47;;;7.50;99.90;;;;;;5000347;28;20025;-73
2023/10/15 01:56:07;;;;;;;2.05;0.40;;;7.50;99.90;;;;;;4999453;28;20032;-73
2023/10/15 01:58:33;;;;;;;4.43;0.60;;;7.50;99.90;;;;;;5030547;28;20041;-73
2023/10/15 02:01:14;;;;;;;1.40;0.43;;;7.50;99.90;;;;;;5017864;28;20029;-73
2023/10/15 02:03:43;;;;;;;2.80;0.50;;;7.60;99.90;;;;;;4999308;28;20037;-73
2023/10/15 02:06:09;;;;;;;2.20;0.50;;;7.60;99.90;;;;;;5015602;28;20033;-73
2023/10/15 02:08:39;;;;;;;1.92;0.50;;;7.60;99.90;;;;;;5012295;28;20033;-73
2023/10/15 02:11:15;;;;;;;1.48;0.50;;;7.60;99.90;;;;;;5017467;28;20377;-73
2023/10/15 02:13:45;;;;;;;1.05;0.47;;;7.60;99.90;;;;;;5034528;28;20041;-73
2023/10/15 02:16:15;;;;;;;2.25;0.40;;;7.60;99.90;;;;;;5016083;28;20037;-73
2023/10/15 02:18:46;;;;;;;3.83;0.60;;;7.60;99.90;;;;;;5017197;28;20037;-73
2023/10/15 02:21:16;;;;;;;2.97;0.60;;;7.60;99.90;;;;;;5034451;28;20041;-73
2023/10/15 02:23:50;;;;;;;2.45;0.65;;;7.60;99.90;;;;;;4995179;28;20389;-73
2023/10/15 02:26:30;;;;;;;2.67;0.50;;;7.60;99.90;;;;;;5014494;28;20037;-74
2023/10/15 02:29:27;;;;;;;3.60;0.80;;;7.60;99.90;;;;;;5013271;28;20037;-73
2023/10/15 02:31:54;;;;;;;2.10;0.50;;;7.60;99.90;;;;;;4998333;28;20052;-73
2023/10/15 02:34:27;;;;;;;3.60;0.50;;;7.60;99.90;;;;;;4998101;28;20038;-73
2023/10/15 02:36:54;;;;;;;1.10;0.45;;;7.60;99.90;;;;;;5015235;28;20025;-73
2023/10/15 02:39:22;;;;;;;2.45;0.40;;;7.60;99.90;;;;;;5016028;28;20045;-73
2023/10/15 02:41:48;;;;;;;1.52;0.50;;;7.60;99.90;;;;;;5016464;28;20029;-73
2023/10/15 02:44:18;;;;;;;2.53;0.70;;;7.60;99.90;;;;;;5013365;28;20029;-73
2023/10/15 02:46:47;;;;;;;1.83;0.52;;;7.60;99.90;;;;;;5016115;28;20084;-73
2023/10/15 02:49:17;;;;;;;2.78;0.60;;;7.60;99.90;;;;;;5000944;28;20036;-73
2023/10/15 02:51:48;;;;;;;1.65;0.40;;;7.60;99.90;;;;;;5002177;28;20034;-73
2023/10/15 02:54:18;;;;;;;3.43;0.50;;;7.60;99.90;;;;;;5000589;28;20037;-73
2023/10/15 02:56:45;;;;;;;1.27;0.30;;;7.60;99.90;;;;;;5015841;28;20291;-73
2023/10/15 02:59:15;;;;;;;2.35;0.70;;;7.60;99.90;;;;;;4996659;28;20400;-73
2023/10/15 03:01:45;;;;;;;0.80;0.50;;;7.60;99.90;;;;;;5014016;28;20037;-73
2023/10/15 03:04:12;;;;;;;0.98;0.40;;;7.60;99.90;;;;;;5016522;28;20030;-73
2023/10/15 03:06:41;;;;;;;1.70;0.50;;;7.50;99.90;;;;;;5013383;28;20037;-73
2023/10/15 03:09:11;;;;;;;0.88;0.30;;;7.50;99.90;;;;;;4998986;28;20123;-73
2023/10/15 03:11:38;;;;;;;1.38;0.50;;;7.50;99.90;;;;;;5015465;28;20034;-73
2023/10/15 03:14:06;;;;;;;3.17;0.77;;;7.50;99.90;;;;;;5016032;28;20037;-74
2023/10/15 03:16:33;;;;;;;1.38;0.50;;;7.40;99.90;;;;;;5010785;28;20038;-73
2023/10/15 03:19:19;;;;;;;2.10;0.50;;;7.40;99.90;;;;;;5020975;28;20430;-73
2023/10/15 03:21:45;;;;;;;1.08;0.50;;;7.40;99.90;;;;;;5003327;28;20432;-73
2023/10/15 03:24:15;;;;;;;1.00;0.50;;;7.40;99.90;;;;;;5002938;28;20036;-73
2023/10/15 03:26:47;;;;;;;2.40;0.73;;;7.30;99.90;;;;;;5003660;28;20515;-73
2023/10/15 03:29:14;;;;;;;1.55;0.40;;;7.30;99.90;;;;;;5002305;28;20056;-73
2023/10/15 03:31:48;;;;;;;2.25;0.40;;;7.30;99.90;;;;;;5019954;28;20052;-73
2023/10/15 03:34:21;;;;;;;1.45;0.30;;;7.30;99.90;;;;;;4986773;28;20040;-73
2023/10/15 03:36:50;;;;;;;;;;;7.30;99.90;;;;;;5016303;28;20040;-73
2023/10/15 03:39:53;;;;;;;1.20;0.63;;;7.30;99.90;;;;;;5015781;28;19921;-73
2023/10/15 03:44:48;;;;;;;3.08;0.40;;;7.30;99.90;;;;;;5017384;28;20476;-74
2023/10/15 03:47:22;;;;;;;2.95;0.50;;;7.30;99.90;;;;;;5021598;28;20033;-73
2023/10/15 03:49:51;;;;;;;0.88;0.40;;;7.30;99.90;;;;;;5019281;28;20311;-73
2023/10/15 03:52:20;;;;;;;2.63;0.40;;;7.20;99.90;;;;;;5021262;28;20040;-73
2023/10/15 03:54:50;;;;;;;1.00;0.30;;;7.20;99.90;;;;;;5008672;28;20037;-73
2023/10/15 03:57:18;;;;;;;0.82;0.50;;;7.20;99.90;;;;;;5016464;28;20041;-73
2023/10/15 03:59:51;;;;;;;1.27;0.40;;;7.20;99.90;;;;;;5016898;28;20401;-73
2023/10/15 04:02:26;;;;;;;3.05;0.52;;;7.20;99.90;;;;;;5001183;28;20436;-73
2023/10/15 04:05:01;;;;;;;2.00;0.70;;;7.30;99.90;;;;;;5015884;28;20148;-73
2023/10/15 04:07:30;;;;;;;3.60;0.60;;;7.30;99.90;;;;;;5000434;28;20041;-73
2023/10/15 04:09:58;;;;;;;3.05;1.13;;;7.40;99.90;;;;;;5027810;28;20045;-74
2023/10/15 04:12:27;;;;;;;2.33;0.50;;;7.40;99.90;;;;;;5017692;28;20033;-74
2023/10/15 04:14:56;;;;;;;1.40;0.60;;;7.30;99.90;;;;;;4999430;28;20037;-74
2023/10/15 04:17:23;;;;;;;1.27;0.40;;;7.30;99.90;;;;;;5018123;28;20036;-74
2023/10/15 04:19:49;;;;;;;3.28;0.80;;;7.30;99.90;;;;;;5021134;28;20038;-73
2023/10/15 04:22:15;;;;;;;2.88;0.40;;;7.20;99.90;;;;;;5019984;28;20129;-73
2023/10/15 04:24:46;;;;;;;1.10;0.30;;;7.20;99.90;;;;;;5002617;28;20033;-73
2023/10/15 04:27:23;;;;;;;1.80;0.32;;;7.10;99.90;;;;;;5016842;28;20198;-73
2023/10/15 04:32:29;;;;;;;0.80;0.38;;;7.20;99.90;;;;;;5017205;28;20041;-73
2023/10/15 04:35:01;;;;;;;0.47;0.30;;;7.20;99.90;;;;;;5017583;28;20613;-73
2023/10/15 04:37:29;;;;;;;0.30;0.20;;;7.20;99.90;;;;;;4999723;28;20483;-73
2023/10/15 04:39:55;;;;;;;2.35;0.40;;;7.20;99.90;;;;;;5000175;28;20041;-73
2023/10/15 04:42:29;;;;;;;1.58;0.32;;;7.20;99.90;;;;;;5014897;28;20036;-73
2023/10/15 04:44:57;;;;;;;1.73;0.20;;;7.20;99.90;;;;;;5013361;28;20400;-73
2023/10/15 04:47:33;;;;;;;0.55;0.30;;;7.10;99.90;;;;;;5017460;28;20029;-73
2023/10/15 04:49:59;;;;;;;0.75;0.30;;;7.10;99.90;;;;;;5019898;28;20511;-73
2023/10/15 04:52:27;;;;;;;1.00;0.38;;;7.10;99.90;;;;;;5019589;28;20394;-73
2023/10/15 04:54:55;;;;;;;0.73;0.20;;;7.10;99.90;;;;;;5032586;28;20037;-73
2023/10/15 04:57:23;;;;;;;0.60;0.30;;;7.10;99.90;;;;;;5017252;28;20500;-73
2023/10/15 04:59:50;;;;;;;0.70;0.30;;;7.00;99.90;;;;;;4999225;28;20100;-73
2023/10/15 05:02:16;;;;;;;2.47;0.20;;;7.00;99.90;;;;;;5030307;28;20040;-73
2023/10/15 05:04:42;;;;;;;0.80;0.30;;;6.90;99.90;;;;;;5015484;28;20034;-73
2023/10/15 05:07:09;;;;;;;1.83;0.30;;;6.80;99.90;;;;;;5028660;28;20491;-73
2023/10/15 05:09:40;;;;;;;1.13;0.32;;;6.80;99.90;;;;;;5016585;28;20065;-73
2023/10/15 05:12:07;;;;;;;1.00;0.30;;;6.70;99.90;;;;;;5031047;28;20037;-73
2023/10/15 05:14:33;;;;;;;1.88;0.30;;;6.70;99.90;;;;;;5015842;28;20033;-73
2023/10/15 05:17:00;;;;;;;1.00;0.30;;;6.60;99.90;;;;;;5016514;28;20041;-73
2023/10/15 05:19:27;;;;;;;2.28;0.30;;;6.60;99.90;;;;;;4985823;28;20050;-73
2023/10/15 05:21:54;;;;;;;0.95;0.20;;;6.50;99.90;;;;;;5018313;28;20037;-73
2023/10/15 05:24:20;;;;;;;1.00;0.30;;;6.50;99.90;;;;;;5017851;28;20040;-72
2023/10/15 05:26:46;;;;;;;0.93;0.40;;;6.40;99.90;;;;;;4997111;28;20033;-73
2023/10/15 05:29:15;;;;;;;0.30;0.20;;;6.40;99.90;;;;;;4998443;28;20212;-73
2023/10/15 05:31:44;;;;;;;0.55;0.25;;;6.40;99.90;;;;;;5015752;28;20044;-72
2023/10/15 05:34:11;;;;;;;1.42;0.93;;;6.40;99.90;;;;;;5012649;28;20038;-73
2023/10/15 05:36:38;;;;;;;1.13;0.40;;;6.40;99.90;;;;;;5015260;28;20048;-73
2023/10/15 05:39:04;;;;;;;1.65;0.30;;;6.40;99.90;;;;;;4998026;28;20041;-73
2023/10/15 05:41:32;;;;;;;0.60;0.30;;;6.30;99.90;;;;;;5017149;28;20037;-73
2023/10/15 05:43:59;;;;;;;1.25;0.30;;;6.30;99.90;;;;;;5015596;28;20045;-73
2023/10/15 05:46:27;;;;;;;0.47;0.30;;;6.20;99.90;;;;;;5014868;28;20170;-73
2023/10/15 05:48:54;;;;;;;3.00;0.30;;;6.20;99.90;;;;;;5014743;28;20029;-73
2023/10/15 05:51:20;;;;;;;0.93;0.40;;;6.10;99.90;;;;;;5015905;28;20241;-73
2023/10/15 05:53:47;;;;;;;1.83;0.30;;;6.10;99.90;;;;;;5000783;28;20946;-73
2023/10/15 05:56:13;;;;;;;1.25;0.30;;;6.10;99.90;;;;;;5015695;28;20492;-73
2023/10/15 05:58:40;;;;;;;1.88;0.30;;;6.10;99.90;;;;;;5014976;28;20046;-72
2023/10/15 06:01:06;;;;;;;1.88;0.43;;;6.00;99.90;;;;;;4998032;28;20048;-73
2023/10/15 06:03:34;;;;;;;0.40;0.30;;;6.00;99.90;;;;;;5015417;28;20044;-73
2023/10/15 06:06:01;;;;;;;1.40;0.47;;;6.00;99.90;;;;;;5012823;28;20036;-72
2023/10/15 06:08:28;;;;;;;1.77;0.40;;;6.00;99.90;;;;;;4981408;28;20036;-72
2023/10/15 06:10:55;;;;;;;1.23;0.43;;;6.00;99.90;;;;;;4996553;28;22609;-72
2023/10/15 06:13:21;;;;;;;3.85;0.70;;;6.00;99.90;;;;;;4995271;28;20519;-73
2023/10/15 06:15:48;;;;;;;1.80;0.52;;;6.00;99.90;;;;;;5028465;28;20030;-72
2023/10/15 06:18:15;;;;;;;1.40;0.45;;;6.00;99.90;;;;;;4983470;28;20123;-73
2023/10/15 06:20:41;;;;;;;0.55;0.30;;;6.00;99.90;;;;;;5015414;28;20065;-72
2023/10/15 06:23:08;;;;;;;0.98;0.40;;;6.00;99.90;;;;;;5014968;28;20053;-73
2023/10/15 06:25:40;;;;;;;1.67;0.60;;;6.00;99.90;;;;;;4997968;28;20041;-72
2023/10/15 06:28:07;;;;;;;0.93;0.52;;;6.00;99.90;;;;;;5016379;28;20414;-73
2023/10/15 06:30:33;;;;;;;1.83;0.50;;;6.00;99.90;;;;;;4995381;28;20041;-73
2023/10/15 06:32:59;;;;;;;3.45;0.65;;;6.00;99.90;;;;;;5015972;28;20029;-73
2023/10/15 06:35:26;;;;;;;2.30;0.40;;;6.00;99.90;;;;;;4981174;28;20037;-73
2023/10/15 06:37:57;;;;;;;1.20;0.40;;;6.00;99.90;;;;;;4997533;28;20040;-73
2023/10/15 06:40:25;;;;;;;2.45;0.63;;;6.00;99.90;;;;;;5013929;28;20042;-72
2023/10/15 06:42:52;;;;;;;2.70;0.60;;;6.10;99.90;;;;;;5013869;28;20045;-73
2023/10/15 06:45:19;;;;;;;2.53;0.60;;;6.20;99.90;;;;;;5014208;28;20034;-72
2023/10/15 06:47:47;;;;;;;2.65;0.82;;;6.30;99.90;;;;;;5014892;28;20059;-73
2023/10/15 06:50:14;;;;;;;2.25;0.70;;;6.40;99.90;;;;;;5014778;28;20400;-73
2023/10/15 06:52:42;;;;;;;2.25;0.70;;;6.50;99.90;;;;;;5018496;28;20033;-72
2023/10/15 06:55:11;;;;;;;3.33;0.82;;;6.60;99.90;;;;;;5001177;28;20056;-73
2023/10/15 06:57:40;;;;;;;2.67;1.25;;;6.80;99.90;;;;;;5001470;28;20365;-73
2023/10/15 07:00:12;;;;;;;4.55;2.47;;;6.90;99.90;;;;;;5015821;28;20042;-72
2023/10/15 07:02:39;;;;;;;4.97;2.15;;;7.00;99.90;;;;;;5019079;28;20043;-73
2023/10/15 07:05:05;;;;;;;4.63;1.58;;;7.10;99.90;;;;;;5019477;28;20033;-73
2023/10/15 07:07:33;;;;;;;2.72;1.13;;;7.10;99.90;;;;;;4999973;28;20040;-74
2023/10/15 07:10:06;;;;;;;2.90;2.03;;;7.20;99.90;;;;;;5000830;28;20041;-74
2023/10/15 07:12:34;;;;;;;4.93;2.42;;;7.20;99.90;;;;;;5018711;28;20385;-73
2023/10/15 07:15:01;;;;;;;4.43;1.67;;;7.20;99.90;;;;;;4999777;28;20030;-74
2023/10/15 07:17:28;;;;;;;4.28;2.03;;;7.20;99.90;;;;;;5017802;28;20036;-73
2023/10/15 07:19:54;;;;;;;5.20;2.20;;;7.20;99.90;;;;;;5020335;28;20045;-73
2023/10/15 07:22:21;;;;;;;5.25;2.10;;;7.30;99.90;;;;;;5002089;28;20029;-74
2023/10/15 07:24:47;;;;;;;4.88;2.08;;;7.40;99.90;;;;;;5001303;28;20030;-73
2023/10/15 07:27:15;;;;;;;2.95;1.45;;;7.50;99.90;;;;;;5034691;28;20033;-74
2023/10/15 07:29:41;;;;;;;5.10;1.75;;;7.60;99.90;;;;;;4997867;28;20044;-74
2023/10/15 07:32:07;;;;;;;5.45;1.48;;;7.70;99.90;;;;;;5002102;28;20048;-73
2023/10/15 07:34:34;;;;;;;3.28;1.30;;;7.80;99.90;;;;;;5018718;28;20033;-73
2023/10/15 07:37:00;;;;;;;3.25;0.85;;;7.80;99.90;;;;;;5018437;28;20512;-73
2023/10/15 07:39:26;;;;;;;4.88;1.30;;;7.80;99.90;;;;;;5017625;28;20040;-74
2023/10/15 07:41:53;;;;;;;2.85;0.80;;;7.80;99.90;;;;;;5018010;28;20048;-75
2023/10/15 07:44:19;;;;;;;3.72;1.00;;;7.80;99.90;;;;;;5018854;28;20029;-73
2023/10/15 07:46:51;;;;;;;3.78;0.70;;;7.80;99.90;;;;;;4998135;28;20053;-74
2023/10/15 07:49:18;;;;;;;2.58;1.02;;;7.80;99.90;;;;;;4997229;28;20040;-74
2023/10/15 07:51:44;;;;;;;3.00;0.70;;;7.90;99.90;;;;;;5018090;28;20060;-74
2023/10/15 07:54:10;;;;;;;3.47;1.00;;;7.90;99.90;;;;;;5001053;28;20041;-74
2023/10/15 07:56:37;;;;;;;3.85;0.80;;;7.90;99.90;;;;;;5015757;28;20044;-74
2023/10/15 07:59:05;;;;;;;3.53;1.30;;;7.90;99.90;;;;;;5000950;28;20045;-73
2023/10/15 08:01:31;;;;;;;2.38;1.00;;;8.00;99.90;;;;;;5017081;28;20396;-74
2023/10/15 08:04:00;;;;;;;4.75;1.20;;;8.00;99.90;;;;;;5016998;28;20376;-75
2023/10/15 08:06:27;;;;;;;5.07;2.22;;;8.10;99.90;;;;;;5033223;28;20372;-74
2023/10/15 08:08:54;;;;;;;5.53;1.60;;;8.20;99.90;;;;;;5002545;28;20041;-74
2023/10/15 08:11:20;;;;;;;7.15;2.03;;;8.30;99.90;;;;;;5000394;28;20025;-73
2023/10/15 08:13:46;;;;;;;5.03;1.40;;;8.30;99.90;;;;;;5017081;28;20040;-74
2023/10/15 08:16:13;;;;;;;2.92;0.98;;;8.40;99.90;;;;;;4999295;28;20392;-73
2023/10/15 08:18:39;;;;;;;3.13;0.65;;;8.50;99.90;;;;;;5016282;28;20141;-74
2023/10/15 08:21:05;;;;;;;3.38;0.82;;;8.50;99.90;;;;;;5016306;28;20052;-74
2023/10/15 08:23:32;;;;;;;4.38;1.15;;;8.50;99.90;;;;;;5016300;28;20034;-74
2023/10/15 08:25:59;;;;;;;2.35;0.80;;;8.50;99.90;;;;;;5017766;28;20044;-74
2023/10/15 08:28:26;;;;;;;4.47;0.70;;;8.40;99.90;;;;;;5016583;28;20045;-74
2023/10/15 08:30:55;;;;;;;2.92;0.80;;;8.40;99.90;;;;;;5016968;28;20056;-74
2023/10/15 08:33:21;;;;;;;3.00;0.70;;;8.40;99.90;;;;;;5015141;28;20033;-73
2023/10/15 08:35:49;;;;;;;2.10;0.93;;;8.30;99.90;;;;;;5016892;28;20038;-73
2023/10/15 08:38:16;;;;;;;3.65;0.90;;;8.20;99.90;;;;;;5017079;28;20029;-73
2023/10/15 08:40:48;;;;;;;2.92;0.60;;;8.20;99.90;;;;;;4986838;28;20052;-73
2023/10/15 08:43:21;;;;;;;1.40;0.60;;;8.10;99.90;;;;;;5013267;28;20037;-73
2023/10/15 08:45:48;;;;;;;2.58;0.50;;;8.00;99.90;;;;;;5015647;28;20393;-73
2023/10/15 08:48:17;;;;;;;1.50;0.40;;;8.10;99.90;;;;;;5031239;28;20300;-73
2023/10/15 08:50:45;;;;;;;2.03;0.50;;;8.10;99.90;;;;;;5000784;28;20034;-74
2023/10/15 08:53:13;;;;;;;2.67;0.60;;;8.20;99.90;;;;;;5015617;28;20042;-74
2023/10/15 08:55:41;;;;;;;1.83;0.40;;;8.40;99.90;;;;;;5031615;28;20492;-74
2023/10/15 08:58:09;;;;;;;1.55;0.50;;;8.50;99.90;;;;;;5012404;28;20508;-73
2023/10/15 09:00:36;;;;;;;2.28;0.32;;;8.50;99.90;;;;;;5016244;28;20030;-73
2023/10/15 09:03:03;;;;;;;2.13;0.45;;;8.50;99.90;;;;;;5016196;28;20029;-73
2023/10/15 09:05:33;;;;;;;1.42;0.70;;;8.40;99.90;;;;;;5017092;28;20044;-73
2023/10/15 09:08:06;;;;;;;1.42;0.50;;;8.40;99.90;;;;;;4995989;28;20049;-73
2023/10/15 09:10:41;;;;;;;1.77;0.40;;;8.40;99.90;;;;;;5018928;28;20044;-73
2023/10/15 09:13:18;;;;;;;1.35;0.60;;;8.30;99.90;;;;;;4997904;28;20045;-73
2023/10/15 09:15:50;;;;;;;2.42;0.50;;;8.30;99.90;;;;;;5029184;28;20052;-73
2023/10/15 09:18:16;;;;;;;1.88;0.40;;;8.40;99.90;;;;;;4995709;28;20064;-74
2023/10/15 09:20:51;;;;;;;1.02;0.40;;;8.40;99.90;;;;;;4997980;28;20049;-74
2023/10/15 09:23:21;;;;;;;4.28;0.50;;;8.50;99.90;;;;;;4996557;28;20491;-73
2023/10/15 09:25:52;;;;;;;3.85;0.50;;;8.50;99.90;;;;;;5015261;28;20049;-73
2023/10/15 09:28:19;;;;;;;0.98;0.40;;;8.70;99.90;;;;;;4995952;28;21202;-74
2023/10/15 09:30:46;;;;;;;1.08;0.40;;;9.10;99.90;;;;;;5014077;28;20374;-73
2023/10/15 09:33:17;;;;;;;2.42;0.47;;;9.40;99.90;;;;;;5015116;28;20139;-74
2023/10/15 09:35:44;;;;;;;1.58;0.40;;;9.40;99.90;;;;;;5014467;28;20036;-73
2023/10/15 09:38:17;;;;;;;1.35;0.40;;;9.30;99.90;;;;;;4996590;28;20416;-74
2023/10/15 09:40:44;;;;;;;;;;;9.20;99.90;;;;;;5016999;28;20060;-74
2023/10/15 09:43:11;;;;;;;2.72;0.40;;;9.20;99.90;;;;;;5016133;28;19917;-73
2023/10/15 09:45:37;;;;;;;1.02;0.32;;;9.20;99.90;;;;;;5018059;28;20298;-73
2023/10/15 09:48:05;;;;;;;1.70;0.40;;;9.40;99.90;;;;;;5016405;28;20025;-73
2023/10/15 09:50:32;;;;;;;1.98;0.40;;;9.60;99.90;;;;;;5016373;28;20048;-74
2023/10/15 09:53:09;;;;;;;1.67;0.43;;;9.80;99.90;;;;;;5017346;28;20034;-73
2023/10/15 09:55:36;;;;;;;0.88;0.30;;;10.00;99.90;;;;;;5015040;28;20040;-73
2023/10/15 09:58:10;;;;;;;9.25;0.95;;;10.20;99.90;;;;;;5014085;28;20044;-73
2023/10/15 10:00:46;;;;;;;1.02;0.30;;;10.30;99.90;;;;;;4993168;28;20053;-73
2023/10/15 10:03:47;;;;;;;4.20;0.40;;;10.20;99.90;;;;;;5013939;28;20030;-74
2023/10/15 10:06:40;;;;;;;4.93;1.08;;;10.10;99.90;;;;;;5014877;28;20124;-73
2023/10/15 10:09:21;;;;;;;1.65;0.70;;;10.10;99.90;;;;;;5015804;28;20037;-73
2023/10/15 10:12:11;;;;;;;1.33;0.50;;;10.10;99.90;;;;;;4997062;28;20041;-73
2023/10/15 10:14:55;;;;;;;2.45;0.55;;;10.30;99.90;;;;;;4983083;28;20041;-73
2023/10/15 10:17:22;;;;;;;2.03;0.47;;;10.40;99.90;;;;;;5001126;28;20044;-73
2023/10/15 10:19:52;;;;;;;2.53;0.40;;;10.50;99.90;;;;;;5016471;28;20045;-73
2023/10/15 10:22:26;;;;;;;3.08;0.50;;;10.60;99.90;;;;;;5015828;28;20033;-73
2023/10/15 10:24:59;;;;;;;1.20;0.40;;;10.70;99.90;;;;;;5016484;28;20044;-73
2023/10/15 10:27:26;;;;;;;;;;;10.80;99.90;;;;;;5012716;28;20597;-73
2023/10/15 10:29:53;;;;;;;3.25;0.40;;;10.80;99.90;;;;;;5018821;28;20295;-73
2023/10/15 10:32:22;;;;;;;1.95;0.40;;;10.90;99.90;;;;;;5018213;28;20030;-73
2023/10/15 10:35:22;;;;;;;2.15;0.88;;;11.30;99.90;;;;;;5035340;28;20043;-74
2023/10/15 10:38:06;;;;;;;1.67;0.30;;;11.90;99.90;;;;;;5020269;28;20037;-73
2023/10/15 10:40:52;;;;;;;0.95;0.20;;;11.90;99.90;;;;;;5018107;28;20041;-73
2023/10/15 10:43:21;;;;;;;3.67;0.30;;;11.80;99.90;;;;;;5019337;28;20365;-74
2023/10/15 10:46:01;;;;;;;1.63;0.22;;;11.70;99.90;;;;;;5016202;28;20037;-74
2023/10/15 10:48:29;;;;;;;2.58;0.75;;;12.00;99.90;;;;;;5002043;28;20435;-73
2023/10/15 10:51:11;;;;;;;2.55;0.32;;;12.50;99.90;;;;;;5024322;28;20036;-74
2023/10/15 10:53:39;;;;;;;2.15;0.25;;;12.90;99.90;;;;;;5018898;28;20037;-74
2023/10/15 10:56:07;;;;;;;2.80;0.30;;;13.10;99.90;;;;;;4999360;28;20040;-74
2023/10/15 10:58:36;;;;;;;1.33;0.28;;;13.10;99.90;;;;;;4982054;28;20049;-74
2023/10/15 11:01:06;;;;;;;1.55;0.20;;;12.90;99.90;;;;;;5032673;28;20040;-74
2023/10/15 11:03:33;;;;;;;2.20;0.30;;;12.50;99.90;;;;;;5019113;28;20037;-74
2023/10/15 11:06:00;;;;;;;1.83;0.30;;;12.20;99.90;;;;;;5002493;28;20044;-74
2023/10/15 11:08:26;;;;;;;1.52;0.30;;;11.80;99.90;;;;;;5017548;28;20049;-74
2023/10/15 11:10:53;;;;;;;0.95;0.30;;;11.60;99.90;;;;;;5020197;28;20037;-74
2023/10/15 11:13:19;;;;;;;1.50;0.40;;;11.60;99.90;;;;;;5020205;28;20032;-74
2023/10/15 11:15:52;;;;;;;3.72;0.40;;;11.60;99.90;;;;;;5018833;28;20048;-73
2023/10/15 11:18:24;;;;;;;1.65;0.40;;;11.60;99.90;;;;;;5019558;28;20033;-74
2023/10/15 11:20:52;;;;;;;1.48;0.28;;;11.70;99.90;;;;;;5021334;28;20049;-74
2023/10/15 11:23:23;;;;;;;3.13;0.40;;;11.70;99.90;;;;;;5018524;28;20030;-74
2023/10/15 11:25:57;;;;;;;2.73;0.43;;;11.80;99.90;;;;;;5000993;28;20037;-75
2023/10/15 11:28:24;;;;;;;3.00;0.40;;;11.80;99.90;;;;;;5012874;28;20303;-77
2023/10/15 11:30:52;;;;;;;5.35;0.90;;;11.70;99.90;;;;;;5016619;28;20969;-74
2023/10/15 11:33:19;;;;;;;6.13;3.33;;;11.60;99.90;;;;;;5014315;28;20468;-74
2023/10/15 11:35:48;;;;;;;3.65;1.30;;;11.80;99.90;;;;;;5014662;28;20428;-74
2023/10/15 11:38:14;;;;;;;4.05;1.10;;;11.80;99.90;;;;;;5015195;28;20046;-73
2023/10/15 11:40:41;;;;;;;2.05;0.40;;;11.80;99.90;;;;;;5014732;28;20045;-74
2023/10/15 11:43:21;;;;;;;2.63;0.40;;;11.90;99.90;;;;;;5016027;28;20512;-74
2023/10/15 11:45:48;;;;;;;1.60;0.40;;;12.00;99.90;;;;;;5014347;28;20556;-74
2023/10/15 11:48:21;;;;;;;3.75;0.80;;;12.10;99.90;;;;;;5023402;28;20037;-74
2023/10/15 11:50:48;;;;;;;3.40;0.65;;;12.10;99.90;;;;;;5011094;28;20052;-75
2023/10/15 11:53:21;;;;;;;2.05;0.50;;;12.10;99.90;;;;;;5015118;28;20041;-74
2023/10/15 11:55:47;;;;;;;6.32;0.60;;;12.30;99.90;;;;;;5013620;28;20025;-74
2023/10/15 11:58:16;;;;;;;2.90;0.40;;;12.60;99.90;;;;;;5015855;28;20040;-74
2023/10/15 12:00:47;;;;;;;2.55;0.60;;;12.70;99.90;;;;;;4995865;28;20504;-75
2023/10/15 12:03:20;;;;;;;2.20;0.30;;;12.70;99.90;;;;;;4997064;28;20044;-75
2023/10/15 12:05:47;;;;;;;;;;;13.00;99.90;;;;;;5014667;28;20034;-75
2023/10/15 12:08:13;;;;;;;2.45;0.30;;;13.20;99.90;;;;;;4997276;28;19916;-76
2023/10/15 12:10:43;;;;;;;5.90;0.40;;;13.00;99.90;;;;;;5013845;28;20040;-76
2023/10/15 12:13:11;;;;;;;2.30;0.30;;;12.60;99.90;;;;;;5014747;28;20045;-75
2023/10/15 12:15:38;;;;;;;5.30;0.70;;;12.20;99.90;;;;;;5013251;28;20033;-75
2023/10/15 12:18:04;;;;;;;5.10;0.40;;;12.90;99.90;;;;;;5012489;28;20397;-75
2023/10/15 12:20:31;;;;;;;3.10;0.35;;;13.30;99.90;;;;;;5019778;28;20045;-75
2023/10/15 12:22:57;;;;;;;2.13;0.40;;;13.80;99.90;;;;;;5015179;28;20037;-75
2023/10/15 12:25:23;;;;;;;3.95;0.30;;;14.80;99.90;;;;;;5014967;28;20049;-76
2023/10/15 12:27:50;;;;;;;2.63;0.40;;;15.90;99.90;;;;;;5015292;28;20518;-76
2023/10/15 12:30:29;;;;;;;1.98;0.43;;;17.20;99.90;;;;;;5015365;28;20894;-76
2023/10/15 12:32:58;;;;;;;3.17;0.40;;;18.40;99.90;;;;;;5030094;28;20052;-76
2023/10/15 12:35:27;;;;;;;4.20;0.50;;;19.20;99.90;;;;;;4992906;28;20041;-76
2023/10/15 12:38:03;;;;;;;2.47;0.57;;;19.60;99.90;;;;;;5013157;28;20115;-76
2023/10/15 12:40:31;;;;;;;2.80;0.30;;;19.70;99.90;;;;;;5021793;28;20049;-78
2023/10/15 12:43:08;;;;;;;2.58;0.40;;;20.00;99.90;;;;;;5011802;28;20041;-76
2023/10/15 12:45:35;;;;;;;3.17;0.50;;;19.90;99.90;;;;;;5013532;28;20022;-76
2023/10/15 12:48:04;;;;;;;1.27;0.30;;;19.60;99.90;;;;;;5008158;28;20041;-76
2023/10/15 12:50:31;;;;;;;2.15;0.50;;;18.70;99.90;;;;;;5011537;28;20049;-76
2023/10/15 12:53:00;;;;;;;3.58;0.50;;;17.80;99.90;;;;;;5014377;28;20484;-76
2023/10/15 12:55:27;;;;;;;5.07;0.52;;;17.20;99.90;;;;;;5025253;28;20040;-77
2023/10/15 12:57:54;;;;;;;2.65;0.30;;;16.60;99.90;;;;;;4997022;28;20037;-77
2023/10/15 13:00:27;;;;;;;4.15;0.57;;;15.80;99.90;;;;;;5011126;28;20447;-76
2023/10/15 13:02:54;;;;;;;4.30;1.08;;;15.10;99.90;;;;;;4981133;28;20072;-76
2023/10/15 13:05:22;;;;;;;2.25;0.40;;;14.60;99.90;;;;;;4994213;28;20140;-76
2023/10/15 13:07:49;;;;;;;3.13;0.20;;;14.20;99.90;;;;;;4996523;28;20451;-76
2023/10/15 13:10:20;;;;;;;3.58;0.40;;;14.00;99.90;;;;;;4991332;28;20744;-76
2023/10/15 13:12:48;;;;;;;3.43;0.47;;;14.00;99.90;;;;;;4996532;28;20036;-76
2023/10/15 13:15:17;;;;;;;3.88;0.40;;;14.00;99.90;;;;;;4995940;28;20583;-76
2023/10/15 13:17:44;;;;;;;3.13;0.30;;;13.90;99.90;;;;;;5008287;28;20231;-75
2023/10/15 13:20:14;;;;;;;1.80;0.30;;;13.70;99.90;;;;;;5015336;28;20081;-76
2023/10/15 13:22:44;;;;;;;3.65;0.38;;;13.30;99.90;;;;;;5015180;28;20038;-76